Time;durP1;ratioP1;P1;durP2;ratioP2;P2;SDS_P1;SDS_P2;PMS_P1;PMS_P2;Temp;Humidity;BMP_temperature;BMP_pressure;BME280_temperature;BME280_humidity;BME280_pressure;Samples;Min_cycle;Max_cycle;Signal;HPM_P1;HPM_P2
2023/10/16 00:02:30;;;;;;;0.50;0.30;;;;;;;;;;10479801;28;20431;-88
2023/10/16 00:07:33;;;;;;;0.50;0.30;;;;;;;;;;10482263;28;20413;-88
2023/10/16 00:12:36;;;;;;;0.60;0.40;;;;;;;;;;10483319;28;20446;-88
2023/10/16 00:17:41;;;;;;;0.60;0.35;;;;;;;;;;10484079;28;20417;-88
2023/10/16 00:22:44;;;;;;;0.90;0.40;;;;;;;;;;10480888;28;20834;-88
2023/10/16 00:27:46;;;;;;;0.50;0.40;;;;;;;;;;10487003;28;20473;-88
2023/10/16 00:32:51;;;;;;;0.30;0.30;;;;;;;;;;10479367;28;20408;-88
2023/10/16 00:37:55;;;;;;;0.60;0.40;;;;;;;;;;10475109;28;20408;-88
2023/10/16 00:42:59;;;;;;;0.40;0.40;;;;;;;;;;10483857;28;20500;-87
2023/10/16 00:48:06;;;;;;;0.30;0.30;;;;;;;;;;10479509;28;20468;-88
2023/10/16 00:53:09;;;;;;;0.88;0.40;;;;;;;;;;10475535;28;20424;-88
2023/10/16 00:58:11;;;;;;;0.80;0.30;;;;;;;;;;10481755;28;20398;-88
2023/10/16 01:03:16;;;;;;;0.40;0.20;;;;;;;;;;10480829;28;21567;-88
2023/10/16 01:08:19;;;;;;;0.40;0.30;;;;;;;;;;10480339;28;20410;-88
2023/10/16 01:13:21;;;;;;;0.20;0.20;;;;;;;;;;10481567;28;20418;-88
2023/10/16 01:18:26;;;;;;;1.00;0.20;;;;;;;;;;10477736;28;20395;-88
2023/10/16 01:23:30;;;;;;;0.30;0.30;;;;;;;;;;10480864;28;20461;-88
2023/10/16 01:28:32;;;;;;;0.55;0.30;;;;;;;;;;10478373;28;20461;-87
2023/10/16 01:33:35;;;;;;;0.30;0.30;;;;;;;;;;10482749;28;20904;-88
2023/10/16 01:38:39;;;;;;;0.30;0.30;;;;;;;;;;10478651;28;21098;-88
2023/10/16 01:43:43;;;;;;;0.50;0.20;;;;;;;;;;10474555;28;20466;-88
2023/10/16 01:48:47;;;;;;;0.73;0.40;;;;;;;;;;10480346;28;20398;-88
2023/10/16 01:53:51;;;;;;;1.20;0.30;;;;;;;;;;10480716;28;20986;-88
2023/10/16 01:58:54;;;;;;;0.52;0.50;;;;;;;;;;10481083;28;20413;-88
2023/10/16 02:03:57;;;;;;;0.60;0.40;;;;;;;;;;10480954;28;20460;-87
2023/10/16 02:09:01;;;;;;;0.60;0.43;;;;;;;;;;10482261;28;20456;-88
2023/10/16 02:14:04;;;;;;;0.22;0.22;;;;;;;;;;10482083;28;20457;-87
2023/10/16 02:19:08;;;;;;;0.80;0.40;;;;;;;;;;10471241;28;20517;-87
2023/10/16 02:24:11;;;;;;;0.32;0.32;;;;;;;;;;10486448;28;20815;-88
2023/10/16 02:29:15;;;;;;;0.90;0.30;;;;;;;;;;10481493;28;20402;-88
2023/10/16 02:34:22;;;;;;;0.85;0.32;;;;;;;;;;10476412;28;20422;-88
2023/10/16 02:39:37;;;;;;;0.50;0.40;;;;;;;;;;10460476;28;20414;-88
2023/10/16 02:44:42;;;;;;;0.80;0.30;;;;;;;;;;10479960;28;20428;-88
2023/10/16 02:49:48;;;;;;;0.40;0.30;;;;;;;;;;10480183;28;20402;-87
2023/10/16 02:54:54;;;;;;;0.43;0.30;;;;;;;;;;10477596;28;20502;-88
2023/10/16 02:59:59;;;;;;;1.02;0.47;;;;;;;;;;10474939;28;20410;-87
2023/10/16 03:05:10;;;;;;;1.25;0.40;;;;;;;;;;10476874;28;20409;-87
2023/10/16 03:10:16;;;;;;;1.85;0.40;;;;;;;;;;10477652;28;20459;-88
2023/10/16 03:15:20;;;;;;;0.38;0.30;;;;;;;;;;10474708;28;20418;-87
2023/10/16 03:20:24;;;;;;;0.57;0.40;;;;;;;;;;10478538;28;20402;-88
2023/10/16 03:25:50;;;;;;;0.70;0.40;;;;;;;;;;10482041;28;20423;-87
2023/10/16 03:30:52;;;;;;;0.70;0.45;;;;;;;;;;10471531;28;20398;-88
2023/10/16 03:35:55;;;;;;;1.30;0.40;;;;;;;;;;10468901;28;20477;-87
2023/10/16 03:40:58;;;;;;;0.40;0.40;;;;;;;;;;10475543;28;20421;-87
2023/10/16 03:46:02;;;;;;;0.70;0.40;;;;;;;;;;10471735;28;20401;-87
2023/10/16 03:51:06;;;;;;;0.40;0.40;;;;;;;;;;10477809;28;20402;-87
2023/10/16 03:56:11;;;;;;;0.47;0.30;;;;;;;;;;10476399;28;20975;-87
2023/10/16 04:01:18;;;;;;;0.93;0.40;;;;;;;;;;10478221;28;20402;-88
2023/10/16 04:06:21;;;;;;;1.02;0.45;;;;;;;;;;10473875;28;20895;-88
2023/10/16 04:11:25;;;;;;;0.50;0.50;;;;;;;;;;10472148;28;20432;-87
2023/10/16 04:16:42;;;;;;;0.73;0.40;;;;;;;;;;10481590;28;20544;-88
2023/10/16 04:21:50;;;;;;;0.57;0.50;;;;;;;;;;10490435;28;20410;-87
2023/10/16 04:27:29;;;;;;;0.50;0.50;;;;;;;;;;10483785;28;20413;-88
2023/10/16 04:32:37;;;;;;;0.90;0.47;;;;;;;;;;10469694;28;20396;-88
2023/10/16 04:37:40;;;;;;;0.63;0.47;;;;;;;;;;10479399;28;20828;-88
2023/10/16 04:48:23;;;;;;;1.20;0.70;;;;;;;;;;10467080;28;20781;-87
2023/10/16 04:53:27;;;;;;;2.50;0.65;;;;;;;;;;10475452;28;20430;-87
2023/10/16 04:58:47;;;;;;;1.00;0.70;;;;;;;;;;10472250;28;20406;-87
2023/10/16 05:04:24;;;;;;;0.73;0.50;;;;;;;;;;10478989;28;20409;-87
2023/10/16 05:20:51;;;;;;;0.80;0.52;;;;;;;;;;10480489;28;20434;-87
2023/10/16 06:18:48;;;;;;;0.70;0.50;;;;;;;;;;10491591;28;20433;-87
2023/10/16 06:23:51;;;;;;;0.90;0.50;;;;;;;;;;10478315;28;20432;-87
2023/10/16 06:28:54;;;;;;;1.50;0.60;;;;;;;;;;10473778;28;20862;-87
2023/10/16 06:33:57;;;;;;;0.68;0.60;;;;;;;;;;10471296;28;21734;-86
2023/10/16 06:39:06;;;;;;;1.33;0.45;;;;;;;;;;10474749;28;20445;-87
2023/10/16 06:44:08;;;;;;;0.60;0.40;;;;;;;;;;10472683;28;20507;-86
2023/10/16 06:49:12;;;;;;;1.17;0.60;;;;;;;;;;10465349;28;20971;-87
2023/10/16 06:54:14;;;;;;;0.80;0.50;;;;;;;;;;10415785;22;20508;-87
2023/10/16 06:59:17;;;;;;;2.38;0.80;;;;;;;;;;10339754;28;20428;-87
2023/10/16 07:04:21;;;;;;;1.93;0.70;;;;;;;;;;10348286;28;20412;-87
2023/10/16 07:09:36;;;;;;;1.10;0.68;;;;;;;;;;10347235;28;20511;-88
2023/10/16 07:14:39;;;;;;;0.50;0.50;;;;;;;;;;10353130;28;20419;-87
2023/10/16 07:19:43;;;;;;;1.88;0.50;;;;;;;;;;10358367;28;20418;-87
2023/10/16 07:24:45;;;;;;;2.53;0.60;;;;;;;;;;10359525;28;20435;-87
2023/10/16 07:29:47;;;;;;;1.73;0.53;;;;;;;;;;10360057;28;20756;-88
2023/10/16 07:34:51;;;;;;;0.50;0.50;;;;;;;;;;10357347;28;20977;-87
2023/10/16 07:39:54;;;;;;;1.45;0.40;;;;;;;;;;10355398;28;20455;-87
2023/10/16 07:44:56;;;;;;;0.85;0.50;;;;;;;;;;10347147;28;20429;-87
2023/10/16 07:50:00;;;;;;;1.50;0.60;;;;;;;;;;10361903;28;20419;-88
2023/10/16 07:55:03;;;;;;;0.55;0.40;;;;;;;;;;10366204;28;20779;-87
2023/10/16 08:00:14;;;;;;;0.80;0.50;;;;;;;;;;10366670;28;20955;-87
2023/10/16 08:05:17;;;;;;;1.10;0.50;;;;;;;;;;10349005;28;20399;-87
2023/10/16 08:15:44;;;;;;;1.70;0.40;;;;;;;;;;10355521;28;20446;-88
2023/10/16 08:26:48;;;;;;;1.73;0.73;;;;;;;;;;10335856;28;20470;-87
2023/10/16 08:32:43;;;;;;;2.38;0.50;;;;;;;;;;10355508;28;20417;-86
2023/10/16 08:37:15;;;;;;;1.20;0.47;;;;;;;;;;10370269;28;20907;-87
2023/10/16 08:42:20;;;;;;;2.57;0.47;;;;;;;;;;10355929;28;20419;-88
2023/10/16 08:47:25;;;;;;;1.67;0.50;;;;;;;;;;10358959;28;20457;-87
2023/10/16 08:52:34;;;;;;;1.33;0.60;;;;;;;;;;10359289;28;20415;-88
2023/10/16 08:57:38;;;;;;;4.80;0.50;;;;;;;;;;10354465;28;20420;-87
2023/10/16 09:02:41;;;;;;;1.63;0.50;;;;;;;;;;10351128;28;20906;-87
2023/10/16 09:07:43;;;;;;;1.30;0.80;;;;;;;;;;10364577;28;20897;-87
2023/10/16 09:12:55;;;;;;;0.88;0.52;;;;;;;;;;10361786;28;20419;-88
2023/10/16 09:17:57;;;;;;;2.17;0.45;;;;;;;;;;10364077;28;20533;-88
2023/10/16 09:23:02;;;;;;;1.92;0.57;;;;;;;;;;10364981;28;20775;-87
2023/10/16 09:28:06;;;;;;;1.00;0.60;;;;;;;;;;10363742;28;20473;-88
2023/10/16 09:33:10;;;;;;;0.80;0.75;;;;;;;;;;10373166;28;21176;-87
2023/10/16 09:38:17;;;;;;;1.10;0.40;;;;;;;;;;10361066;28;20447;-87
2023/10/16 09:43:25;;;;;;;2.60;0.70;;;;;;;;;;10358005;28;20395;-87
2023/10/16 09:48:28;;;;;;;0.65;0.55;;;;;;;;;;10364337;28;20899;-87
2023/10/16 09:53:31;;;;;;;0.70;0.50;;;;;;;;;;10374325;28;20578;-89
2023/10/16 09:58:40;;;;;;;1.00;0.40;;;;;;;;;;10357454;28;20469;-87
2023/10/16 10:03:43;;;;;;;1.27;0.60;;;;;;;;;;10367249;28;20407;-92
2023/10/16 10:09:21;;;;;;;1.73;0.50;;;;;;;;;;10367911;28;20451;-92
2023/10/16 10:14:27;;;;;;;2.67;0.70;;;;;;;;;;10372279;28;20458;-92
2023/10/16 10:19:35;;;;;;;2.43;0.57;;;;;;;;;;10363538;28;20486;-91
2023/10/16 10:24:39;;;;;;;1.23;0.50;;;;;;;;;;10366942;28;20453;-92
2023/10/16 10:29:47;;;;;;;1.33;0.40;;;;;;;;;;10367040;28;20784;-93
2023/10/16 10:34:49;;;;;;;1.33;0.50;;;;;;;;;;10360234;28;20961;-92
2023/10/16 10:40:14;;;;;;;3.43;1.83;;;;;;;;;;10346554;28;20425;-92
2023/10/16 10:45:33;;;;;;;1.10;0.60;;;;;;;;;;10360116;28;20797;-92
2023/10/16 10:50:45;;;;;;;2.17;0.75;;;;;;;;;;10346247;28;20462;-92
2023/10/16 10:55:56;;;;;;;2.08;0.50;;;;;;;;;;10343678;28;20470;-92
2023/10/16 11:01:16;;;;;;;1.20;0.50;;;;;;;;;;10350815;28;20424;-94
2023/10/16 11:06:19;;;;;;;0.95;0.40;;;;;;;;;;10341922;28;20781;-92
2023/10/16 11:11:22;;;;;;;1.10;0.35;;;;;;;;;;10347441;28;20418;-93
2023/10/16 11:16:28;;;;;;;1.10;0.50;;;;;;;;;;10337233;28;20425;-91
2023/10/16 11:21:30;;;;;;;0.52;0.40;;;;;;;;;;10359683;28;20423;-92
2023/10/16 11:26:33;;;;;;;2.97;1.70;;;;;;;;;;10354484;28;20415;-91
2023/10/16 11:31:40;;;;;;;3.90;2.67;;;;;;;;;;10358631;28;20430;-92
2023/10/16 11:36:50;;;;;;;1.40;0.60;;;;;;;;;;10361611;28;20427;-91
2023/10/16 11:41:52;;;;;;;0.80;0.47;;;;;;;;;;10358578;28;20429;-92
2023/10/16 11:47:00;;;;;;;1.17;0.50;;;;;;;;;;10364948;28;20415;-90
2023/10/16 11:52:19;;;;;;;1.27;0.43;;;;;;;;;;10373395;28;20423;-90
2023/10/16 11:57:27;;;;;;;3.57;0.57;;;;;;;;;;10343045;28;20514;-90
2023/10/16 12:02:31;;;;;;;0.43;0.40;;;;;;;;;;10361987;28;20439;-90
2023/10/16 12:07:33;;;;;;;0.70;0.50;;;;;;;;;;10353556;28;20424;-90
2023/10/16 12:12:38;;;;;;;2.13;0.40;;;;;;;;;;10365190;28;20395;-89
2023/10/16 12:17:43;;;;;;;0.70;0.50;;;;;;;;;;10355766;28;20475;-89
2023/10/16 12:22:47;;;;;;;0.85;0.40;;;;;;;;;;10365240;28;20477;-89
2023/10/16 12:27:50;;;;;;;1.02;0.50;;;;;;;;;;10369042;28;20839;-88
2023/10/16 12:32:55;;;;;;;3.13;0.52;;;;;;;;;;10353229;28;20435;-88
2023/10/16 12:37:59;;;;;;;0.70;0.40;;;;;;;;;;10367486;28;20451;-90
2023/10/16 12:43:02;;;;;;;2.43;0.50;;;;;;;;;;10363982;28;20411;-87
2023/10/16 12:48:07;;;;;;;1.10;0.50;;;;;;;;;;10350454;28;20463;-90
2023/10/16 12:53:10;;;;;;;3.15;1.08;;;;;;;;;;10363194;28;20428;-90
2023/10/16 12:58:12;;;;;;;1.30;0.70;;;;;;;;;;10356403;28;20423;-90
2023/10/16 13:03:16;;;;;;;1.17;0.50;;;;;;;;;;10348947;28;20407;-90
2023/10/16 13:08:20;;;;;;;0.75;0.43;;;;;;;;;;10359396;28;20417;-90
2023/10/16 13:13:23;;;;;;;0.65;0.50;;;;;;;;;;10358502;28;20412;-90
2023/10/16 13:18:30;;;;;;;3.20;0.57;;;;;;;;;;10344084;28;20894;-89
2023/10/16 13:23:36;;;;;;;1.45;0.60;;;;;;;;;;10357938;28;20417;-90
2023/10/16 13:28:41;;;;;;;1.88;0.50;;;;;;;;;;10363450;28;20407;-90
2023/10/16 13:33:50;;;;;;;1.52;0.57;;;;;;;;;;10353406;28;20440;-88
2023/10/16 13:38:53;;;;;;;1.40;0.40;;;;;;;;;;10361290;28;20417;-89
2023/10/16 13:43:55;;;;;;;1.97;0.60;;;;;;;;;;10351247;28;20399;-90
2023/10/16 13:48:59;;;;;;;2.60;1.25;;;;;;;;;;10346997;28;20939;-88
2023/10/16 13:54:01;;;;;;;3.10;1.50;;;;;;;;;;10354790;28;20774;-89
2023/10/16 13:59:04;;;;;;;1.88;0.93;;;;;;;;;;10351465;28;20427;-89
2023/10/16 14:04:13;;;;;;;1.27;0.50;;;;;;;;;;10357350;28;20413;-89
2023/10/16 14:09:20;;;;;;;1.23;0.53;;;;;;;;;;10361610;28;20422;-90
2023/10/16 14:14:24;;;;;;;1.65;0.60;;;;;;;;;;10366582;28;20430;-89
2023/10/16 14:19:28;;;;;;;0.98;0.60;;;;;;;;;;10356602;28;20949;-89
2023/10/16 14:24:31;;;;;;;3.60;0.80;;;;;;;;;;10362615;28;20403;-89
2023/10/16 14:29:37;;;;;;;2.30;0.70;;;;;;;;;;10361180;28;20415;-89
2023/10/16 14:34:41;;;;;;;3.38;1.40;;;;;;;;;;10348219;28;20405;-87
2023/10/16 14:39:46;;;;;;;3.55;1.70;;;;;;;;;;10349794;28;20602;-84
2023/10/16 14:44:48;;;;;;;4.10;2.30;;;;;;;;;;10339306;28;20471;-87
2023/10/16 14:49:54;;;;;;;1.35;0.47;;;;;;;;;;10360637;28;20455;-85
2023/10/16 14:54:56;;;;;;;3.22;0.50;;;;;;;;;;10349708;28;20416;-87
2023/10/16 14:59:58;;;;;;;2.08;0.80;;;;;;;;;;10352519;28;20432;-87
2023/10/16 15:05:03;;;;;;;2.35;0.70;;;;;;;;;;10348492;28;20423;-87
2023/10/16 15:10:07;;;;;;;0.65;0.50;;;;;;;;;;10355548;28;20450;-87
2023/10/16 15:15:10;;;;;;;1.30;0.60;;;;;;;;;;10359399;28;20423;-87
2023/10/16 15:20:14;;;;;;;2.08;0.55;;;;;;;;;;10346326;28;20426;-87
2023/10/16 15:25:17;;;;;;;4.60;0.70;;;;;;;;;;10363488;28;20493;-87
2023/10/16 15:30:19;;;;;;;4.25;0.70;;;;;;;;;;10352874;28;20473;-86
2023/10/16 15:35:23;;;;;;;2.20;0.65;;;;;;;;;;10358668;28;20477;-87
2023/10/16 15:40:27;;;;;;;2.95;0.80;;;;;;;;;;10347655;28;20481;-88
2023/10/16 15:45:36;;;;;;;2.30;0.90;;;;;;;;;;10356769;28;20509;-87
2023/10/16 15:50:41;;;;;;;2.13;1.00;;;;;;;;;;10359255;28;20465;-88
2023/10/16 15:55:46;;;;;;;4.18;0.80;;;;;;;;;;10359181;28;20616;-87
2023/10/16 16:00:52;;;;;;;2.20;0.60;;;;;;;;;;10356158;28;20419;-87
2023/10/16 16:05:55;;;;;;;1.73;0.80;;;;;;;;;;10354509;28;20478;-87
2023/10/16 16:10:59;;;;;;;4.18;0.90;;;;;;;;;;10371696;28;20419;-87
2023/10/16 16:16:01;;;;;;;4.90;0.80;;;;;;;;;;10359120;28;20423;-87
2023/10/16 16:21:05;;;;;;;4.70;0.80;;;;;;;;;;10361099;28;20419;-86
2023/10/16 16:26:09;;;;;;;3.08;1.00;;;;;;;;;;10364216;28;20415;-86
2023/10/16 16:31:15;;;;;;;1.30;0.77;;;;;;;;;;10360165;28;20515;-86
2023/10/16 16:36:22;;;;;;;2.35;0.80;;;;;;;;;;10359010;28;20549;-85
2023/10/16 16:41:26;;;;;;;5.72;1.13;;;;;;;;;;10358751;28;20451;-86
2023/10/16 16:46:29;;;;;;;4.57;1.03;;;;;;;;;;10357667;28;20930;-87
2023/10/16 16:51:33;;;;;;;3.80;1.30;;;;;;;;;;10364293;28;20501;-86
2023/10/16 16:56:37;;;;;;;4.40;1.13;;;;;;;;;;10358915;28;20480;-86
2023/10/16 17:01:40;;;;;;;5.97;2.13;;;;;;;;;;10353727;28;20448;-86
2023/10/16 17:06:44;;;;;;;5.73;2.20;;;;;;;;;;10357495;28;20442;-89
2023/10/16 17:11:48;;;;;;;7.75;2.45;;;;;;;;;;10357995;28;20411;-89
2023/10/16 17:16:51;;;;;;;6.00;2.30;;;;;;;;;;10364014;28;20458;-89
2023/10/16 17:21:55;;;;;;;6.13;1.63;;;;;;;;;;10365799;28;20427;-90
2023/10/16 17:26:57;;;;;;;5.03;1.83;;;;;;;;;;10357397;28;20440;-89
2023/10/16 17:32:00;;;;;;;3.72;1.90;;;;;;;;;;10347384;28;20449;-90
2023/10/16 17:37:06;;;;;;;4.65;1.80;;;;;;;;;;10360962;28;20493;-90
2023/10/16 17:42:08;;;;;;;4.17;1.77;;;;;;;;;;10365693;28;20438;-90
2023/10/16 17:47:11;;;;;;;4.55;1.77;;;;;;;;;;10364809;28;20419;-90
2023/10/16 17:52:15;;;;;;;3.90;2.10;;;;;;;;;;10355141;28;20499;-89
2023/10/16 17:57:17;;;;;;;4.72;2.10;;;;;;;;;;10365410;28;20463;-89
2023/10/16 18:02:20;;;;;;;3.73;2.27;;;;;;;;;;10355371;28;20411;-89
2023/10/16 18:07:24;;;;;;;7.93;2.53;;;;;;;;;;10369273;28;20427;-88
2023/10/16 18:12:26;;;;;;;8.50;3.00;;;;;;;;;;10352180;28;20413;-86
2023/10/16 18:17:28;;;;;;;5.87;3.03;;;;;;;;;;10361478;28;20650;-87
2023/10/16 18:22:32;;;;;;;8.57;2.85;;;;;;;;;;10348424;28;20424;-84
2023/10/16 18:27:34;;;;;;;7.45;2.85;;;;;;;;;;10349419;28;20501;-86
2023/10/16 18:32:38;;;;;;;9.07;3.17;;;;;;;;;;10345670;28;21115;-86
2023/10/16 18:37:42;;;;;;;3.87;2.90;;;;;;;;;;10338991;28;20443;-86
2023/10/16 18:42:44;;;;;;;5.53;2.80;;;;;;;;;;10341808;28;20521;-86
2023/10/16 18:47:47;;;;;;;5.50;2.90;;;;;;;;;;10341515;28;20439;-84
2023/10/16 18:52:50;;;;;;;5.27;3.40;;;;;;;;;;10341502;28;20450;-85
2023/10/16 18:57:55;;;;;;;6.10;3.00;;;;;;;;;;10345932;28;20450;-84
2023/10/16 19:02:57;;;;;;;4.53;2.75;;;;;;;;;;10349911;28;20420;-85
2023/10/16 19:08:01;;;;;;;7.03;3.23;;;;;;;;;;10347371;28;21204;-87
2023/10/16 19:13:04;;;;;;;4.85;3.05;;;;;;;;;;10355648;28;20811;-88
2023/10/16 19:18:11;;;;;;;5.70;3.20;;;;;;;;;;10356987;28;20455;-87
2023/10/16 19:23:15;;;;;;;6.75;2.95;;;;;;;;;;10350637;28;20397;-87
2023/10/16 19:28:17;;;;;;;4.90;3.40;;;;;;;;;;10348540;28;20464;-88
2023/10/16 19:33:21;;;;;;;6.60;3.67;;;;;;;;;;10350362;28;20423;-88
2023/10/16 19:38:25;;;;;;;7.60;3.40;;;;;;;;;;10350482;28;20427;-87
2023/10/16 19:43:28;;;;;;;7.00;3.67;;;;;;;;;;10355928;28;20453;-88
2023/10/16 19:48:30;;;;;;;6.40;3.65;;;;;;;;;;10353109;28;20418;-88
2023/10/16 19:53:34;;;;;;;6.88;4.20;;;;;;;;;;10351297;28;20428;-87
2023/10/16 19:58:37;;;;;;;5.07;3.50;;;;;;;;;;10360359;28;20955;-87
2023/10/16 20:03:40;;;;;;;10.80;4.22;;;;;;;;;;10361948;28;20419;-87
2023/10/16 20:08:44;;;;;;;6.53;3.78;;;;;;;;;;10357092;28;20992;-88
2023/10/16 20:13:47;;;;;;;7.35;3.95;;;;;;;;;;10348165;28;20427;-87
2023/10/16 20:18:49;;;;;;;6.22;3.55;;;;;;;;;;10361916;28;20466;-88
2023/10/16 20:23:54;;;;;;;7.03;3.53;;;;;;;;;;10347757;28;20461;-87
2023/10/16 20:28:58;;;;;;;8.02;3.47;;;;;;;;;;10342057;28;20403;-87
2023/10/16 20:34:00;;;;;;;4.93;3.13;;;;;;;;;;10355299;28;20475;-87
2023/10/16 20:39:07;;;;;;;5.93;3.40;;;;;;;;;;10351881;28;20430;-87
2023/10/16 20:44:10;;;;;;;4.43;2.60;;;;;;;;;;10352220;28;20449;-87
2023/10/16 20:49:12;;;;;;;5.53;2.43;;;;;;;;;;10354815;28;21128;-87
2023/10/16 20:54:16;;;;;;;3.20;2.20;;;;;;;;;;10358986;28;20417;-87
2023/10/16 20:59:18;;;;;;;3.58;1.98;;;;;;;;;;10362631;28;20430;-87
2023/10/16 21:04:21;;;;;;;3.28;2.08;;;;;;;;;;10352748;28;20473;-88
2023/10/16 21:09:26;;;;;;;3.90;2.00;;;;;;;;;;10360811;28;20442;-86
2023/10/16 21:14:29;;;;;;;5.97;2.33;;;;;;;;;;10353921;28;20409;-86
2023/10/16 21:19:31;;;;;;;2.75;1.70;;;;;;;;;;10352373;28;20478;-86
2023/10/16 21:24:35;;;;;;;3.22;1.73;;;;;;;;;;10357368;28;20412;-85
2023/10/16 21:29:37;;;;;;;3.97;1.93;;;;;;;;;;10351360;28;20409;-85
2023/10/16 21:34:39;;;;;;;3.33;1.90;;;;;;;;;;10359130;28;20407;-85
2023/10/16 21:39:44;;;;;;;3.00;1.90;;;;;;;;;;10353422;28;20447;-86
2023/10/16 21:44:47;;;;;;;2.38;1.55;;;;;;;;;;10342763;28;20421;-86
2023/10/16 21:49:51;;;;;;;1.80;1.40;;;;;;;;;;10352504;28;20417;-86
2023/10/16 21:54:54;;;;;;;3.15;1.70;;;;;;;;;;10354008;28;20880;-85
2023/10/16 21:59:57;;;;;;;3.00;1.60;;;;;;;;;;10351811;28;20423;-86
2023/10/16 22:04:59;;;;;;;3.15;1.70;;;;;;;;;;10356243;28;20417;-86
2023/10/16 22:10:09;;;;;;;2.67;1.60;;;;;;;;;;10358012;28;20407;-86
2023/10/16 22:15:12;;;;;;;2.83;1.48;;;;;;;;;;10352558;28;20409;-86
2023/10/16 22:20:14;;;;;;;4.40;2.13;;;;;;;;;;10348387;28;20460;-86
2023/10/16 22:25:19;;;;;;;4.88;2.30;;;;;;;;;;10351838;28;20416;-85
2023/10/16 22:30:22;;;;;;;3.67;2.58;;;;;;;;;;10339119;28;20909;-86
2023/10/16 22:35:25;;;;;;;3.90;2.30;;;;;;;;;;10346031;28;20446;-85
2023/10/16 22:40:30;;;;;;;2.63;2.00;;;;;;;;;;10365441;28;20427;-85
2023/10/16 22:45:33;;;;;;;4.50;2.05;;;;;;;;;;10344042;28;20964;-86
2023/10/16 22:50:36;;;;;;;3.72;1.77;;;;;;;;;;10349920;28;20417;-85
2023/10/16 22:55:40;;;;;;;3.60;2.08;;;;;;;;;;10352533;28;20814;-86
2023/10/16 23:00:43;;;;;;;3.42;1.95;;;;;;;;;;10350649;28;20424;-86
2023/10/16 23:05:45;;;;;;;3.37;1.87;;;;;;;;;;10343199;28;20749;-86
2023/10/16 23:10:49;;;;;;;3.40;1.90;;;;;;;;;;10344495;28;20475;-86
2023/10/16 23:15:53;;;;;;;5.45;2.10;;;;;;;;;;10338016;28;20412;-86
2023/10/16 23:20:56;;;;;;;3.85;2.20;;;;;;;;;;10356228;28;20435;-85
2023/10/16 23:26:00;;;;;;;3.00;2.30;;;;;;;;;;10351120;28;20885;-85
2023/10/16 23:31:05;;;;;;;4.40;2.20;;;;;;;;;;10349971;28;20477;-85
2023/10/16 23:36:11;;;;;;;4.30;2.17;;;;;;;;;;10346712;28;20455;-86
2023/10/16 23:41:27;;;;;;;3.78;2.28;;;;;;;;;;10346724;28;20429;-86
2023/10/16 23:46:30;;;;;;;3.93;1.73;;;;;;;;;;10341625;28;20465;-86
2023/10/16 23:51:35;;;;;;;3.20;1.70;;;;;;;;;;10369565;28;20842;-86
2023/10/16 23:56:39;;;;;;;2.33;1.83;;;;;;;;;;10357083;28;20457;-85
